Mostly Cloudy Current Weather (METAR) For Innsbruck - Kranebitten Airport

All times on the weather descriptions are local

Observed at 15:20 - (19 mins ago)

Mostly Cloudy

23°C

Mostly Cloudy
Clouds: Few Clouds at 8,000ft, Broken Clouds at 20,000ft
Wind: 130° at 15 knots, varying from 100° to 180, gusting 26 knots
Visibility: Greater than 10km
QNH: 1013
Dew Point: 9°C
Runway in Use: Runway 08

Sunrise Today: 06:55
Sunset Today: 19:22

Forecast Weather (TAF) For Innsbruck - Kranebitten Airport

Issued at 02:00 - (12 days ago)


Runway in Use: Unable to determine, wind is clam

Forecast valid until 02:00 on Tuesday

METAR/TAF RAW METAR / TAF

LOWI 181320Z 13015G26KT 100V180 9999 FEW080 BKN200 23/09 Q1013 WS R08 NOSIG

Weather Widget

Put weather from any of our airports on your website with our weather widget.

Find Another Search

Airport Search


Please Wait Please Wait - Loading
Close
Close

Login

Username:

Password:

Remember Me:

Remember me on this computer

Forgotten your password? Get a reset password sent to your registered e-mail address

Close

User Private Message

Subject:

Message: